Flight Track Log - Related Links

Times and Time Zones

All times are in EDT time to prevent confusion due to time zone crossing. See the SKW5619 flight status page for this flight to view local times or setup timezone preferences in your user account.

Time Position Orientation Groundspeed Altitude Reporting Facility
EDT Latitude Longitude Course Direction KTS MPH feet Rate Location/Type
Thu 10:05:00 PM 40.2182 -105.0108 324° Northwest  Level Estimated
Thu 10:06:00 PM 40.3072 -105.0958 324° Northwest  Level Estimated
Thu 10:07:00 PM 40.3961 -105.1810 324° Northwest  Level Estimated
Thu 10:08:00 PM 40.4850 -105.2664 324° Northwest  Level Estimated
Thu 10:09:00 PM 40.5738 -105.3521 324° Northwest  Level Estimated
Thu 10:10:00 PM 40.6625 -105.4380 324° Northwest  Level Estimated
Thu 10:11:00 PM 40.7512 -105.5241 324° Northwest  Level Estimated
Thu 10:12:00 PM 40.8398 -105.6104 324° Northwest  Level Estimated
Thu 10:13:00 PM 40.9283 -105.6970 324° Northwest  Level Estimated
Thu 10:14:00 PM 41.0168 -105.7838 324° Northwest  Level Estimated
Thu 10:15:00 PM 41.1052 -105.8708 323° Northwest  Level Estimated
Thu 10:16:00 PM 41.1935 -105.9581 323° Northwest  Level Estimated
Thu 10:17:00 PM 41.2818 -106.0456 323° Northwest  Level Estimated
Thu 10:18:00 PM 41.3700 -106.1333 323° Northwest  Level Estimated
Thu 10:19:00 PM 41.4581 -106.2213 323° Northwest  Level Estimated
Thu 10:20:00 PM 41.5462 -106.3095 323° Northwest  Level Estimated
Thu 10:21:00 PM 41.6342 -106.3980 323° Northwest  Level Estimated
Thu 10:22:00 PM 41.7222 -106.4867 323° Northwest  Level Estimated
Thu 10:23:00 PM 41.8101 -106.5756 323° Northwest  Level Estimated
Thu 10:24:00 PM 41.8979 -106.6648 323° Northwest  Level Estimated
Thu 10:25:00 PM 41.9856 -106.7542 323° Northwest  Level Estimated
Thu 10:26:00 PM 42.0732 -106.8439 323° Northwest  Level Estimated
Thu 10:27:00 PM 42.1608 -106.9338 323° Northwest  Level Estimated
Thu 10:28:00 PM 42.2483 -107.0240 323° Northwest  Level Estimated
Thu 10:29:00 PM 42.3358 -107.1144 323° Northwest  Level Estimated
Thu 10:30:00 PM 42.4232 -107.2051 323° Northwest  Level Estimated
Thu 10:31:00 PM 42.5105 -107.2960 322° Northwest  Level Estimated
Thu 10:32:00 PM 42.5977 -107.3872 322° Northwest  Level Estimated
Thu 10:33:00 PM 42.6849 -107.4787 322° Northwest  Level Estimated
Thu 10:34:00 PM 42.7720 -107.5704 322° Northwest  Level Estimated
Thu 10:35:00 PM 42.8590 -107.6623 322° Northwest  Level Estimated
Thu 10:36:00 PM 42.9460 -107.7545 322° Northwest  Level Estimated
Thu 10:37:00 PM 43.0328 -107.8470 322° Northwest  Level Estimated
Thu 10:38:00 PM 43.1196 -107.9397 322° Northwest  Level Estimated
Thu 10:39:00 PM 43.2063 -108.0327 322° Northwest  Level Estimated
Thu 10:40:00 PM 43.2930 -108.1260 322° Northwest  Level Estimated
Thu 10:41:00 PM 43.3796 -108.2195 322° Northwest  Level Estimated
Thu 10:42:00 PM 43.4661 -108.3133 322° Northwest  Level Estimated
Thu 10:43:00 PM 43.5525 -108.4074 322° Northwest  Level Estimated
Thu 10:44:00 PM 43.6388 -108.5017 322° Northwest  Level Estimated
Thu 10:45:00 PM 43.7251 -108.5963 322° Northwest  Level Estimated
Thu 10:46:00 PM 43.8113 -108.6912 322° Northwest  Level Estimated
Thu 10:47:00 PM 43.8974 -108.7864 321° Northwest  Level Estimated
Thu 10:48:00 PM 43.9834 -108.8818 321° Northwest  Level Estimated
Thu 10:49:00 PM 44.0693 -108.9775 321° Northwest  Level Estimated
Thu 10:50:00 PM 44.1552 -109.0735 321° Northwest  Level Estimated
Thu 10:51:00 PM 44.2410 -109.1698 321° Northwest  Level Estimated
Thu 10:52:00 PM 44.3267 -109.2663 321° Northwest  Level Estimated
Thu 10:53:00 PM 44.4123 -109.3632 321° Northwest  Level Estimated
Thu 10:54:00 PM 44.4978 -109.4603 321° Northwest  Level Estimated
Thu 10:55:00 PM 44.5833 -109.5577 321° Northwest  Level Estimated
Thu 10:56:00 PM 44.6687 -109.6553 321° Northwest  Level Estimated
Thu 10:57:00 PM 44.7540 -109.7533 321° Northwest  Level Estimated
Thu 10:58:00 PM 44.8392 -109.8516 321° Northwest  Level Estimated
Thu 10:59:00 PM 44.9243 -109.9501 321° Northwest  Level Estimated
Thu 11:00:00 PM 45.0093 -110.0490 321° Northwest  Level Estimated
Thu 11:01:00 PM 45.0943 -110.1481 321° Northwest  Level Estimated
Thu 11:02:00 PM 45.1792 -110.2475 320° Northwest  Level Estimated
Thu 11:03:00 PM 45.2639 -110.3473 320° Northwest  Level Estimated
Thu 11:04:00 PM 45.3486 -110.4473 320° Northwest  Level Estimated
Thu 11:05:00 PM 45.4332 -110.5476 320° Northwest  Level Estimated
Thu 11:06:00 PM 45.5177 -110.6482 320° Northwest  Level Estimated
Thu 11:07:00 PM 45.6022 -110.7492 320° Northwest  Level Estimated
Thu 11:08:00 PM 45.6865 -110.8504 320° Northwest  Level Estimated
Thu 11:09:00 PM 45.7708 -110.9520 320° Northwest  Level Estimated
Thu 11:10:00 PM 45.8549 -111.0538 320° Northwest  Level Estimated
Thu 11:11:00 PM 45.9390 -111.1560 320° Northwest  Level Estimated
Thu 11:12:00 PM 46.0230 -111.2584 320° Northwest  Level Estimated
Thu 11:13:00 PM 46.1069 -111.3612 320° Northwest  Level Estimated
Thu 11:14:00 PM 46.1907 -111.4643 320° Northwest  Level Estimated
Thu 11:15:00 PM 46.2743 -111.5677 320° Northwest  Level Estimated
Thu 11:16:00 PM 46.3580 -111.6714 319° Northwest  Level Estimated
Thu 11:17:00 PM 46.4415 -111.7755 319° Northwest  Level Estimated
Thu 11:18:00 PM 46.5249 -111.8798 319° Northwest  Level Estimated
Thu 11:19:00 PM 46.6068 -111.9827 319° Northwest  Level Estimated
Thu 11:20:00 PM 46.6068 -111.9827 180° South  Level Estimated
Thu 11:21:00 PM 46.6068 -111.9827 180° South  Level Estimated
Thu 11:22:00 PM 46.6068 -111.9827 180° South  Level Estimated
Thu 11:23:00 PM 46.6068 -111.9827 180° South  Level Estimated
Thu 11:24:00 PM 46.6068 -111.9827 180° South  Level Estimated
Thu 11:25:00 PM 46.6068 -111.9827 180° South  Level Estimated
Thu 11:26:00 PM 46.6068 -111.9827 180° South  Level Estimated

Login

Don't have an account? Register now (free) for customized features, flight alerts, and more!